Airfield :
LOGIN :

Register | Disclaimer

   EN    FR    IT 

 










Legend :    VFR   Marginal VFR   IFR   Intensive IFR   Very Intensive IFR
Visi :
Ceiling :
>= 8 km
>= 3000ft
5 to 8 km
1000 to 3000 ft
1500m to 5 km
500 to 1000 ft
800 to 1500m
200 to 500 ft
< 800m
< 200 ft
Symbols :   Thunderstorms  Fog  Heavy snow  Heavy precipitations  Wind > 20 kt
SIGMETs :     Misc.  Thunderstorms  Icing  Turbulence  Mountain Waves  Volcanic Ashes






- Airport Elevation : 416 ft
- IATA code : OVD


LEAS - Asturias

CURRENT METAR :
  • 071530Z 34006KT 270V070 9999 FEW040 18/11 Q1018 NOSIG

EXPIRED METARs :
  • 071500Z VRB03KT 9999 FEW040 20/11 Q1018 NOSIG
  • 071430Z 06004KT 010V110 9999 SCT035 19/11 Q1018 NOSIG
  • 071400Z VRB03KT 9999 SCT032 20/10 Q1018 NOSIG
  • 071330Z VRB05KT 9999 SCT030 18/11 Q1018 NOSIG
  • 071300Z 32007KT 270V020 9999 FEW032 18/11 Q1018 NOSIG

TAF TAF LEAS
Valid from the 07 at 15:00 until the 08 at 15:00 UTC


071400Z 0715/0815 VRB06KT 9999 FEW035 TX19/0813Z TN10/0805Z
PROB30
TEMPO 0813/0815 04010KT



MET'MAP, your aeronautical weather chart ! - Copyright ORBIFLY December 2007 - Disclaimer

ORBIFLY MET'MAP TEAM :

Programming & Development : Alexandra Zaïnal
Concept & original design : Baudouin d'Aumeries
Assistance for programming : Marc-Olivier Méhu
Technical & hardware support : Manuel Goepfert

Contact : metmap@orbifly.com




SOURCES & CREDITS :

   NOAA